sensor_id;sensor_type;location;lat;lon;timestamp;pressure;altitude;pressure_sealevel;temperature;humidity
50368;BME280;36281;34.132;-118.018;2023-01-30T00:02:14;99727.84;;;13.60;61.95
50368;BME280;36281;34.132;-118.018;2023-01-30T00:04:42;99722.75;;;13.58;60.89
50368;BME280;36281;34.132;-118.018;2023-01-30T00:07:12;99725.19;;;13.60;61.00
50368;BME280;36281;34.132;-118.018;2023-01-30T00:09:40;99729.44;;;13.61;61.17
50368;BME280;36281;34.132;-118.018;2023-01-30T00:12:09;99732.13;;;13.61;61.66
50368;BME280;36281;34.132;-118.018;2023-01-30T00:14:37;99732.13;;;13.61;61.58
50368;BME280;36281;34.132;-118.018;2023-01-30T00:17:05;99723.31;;;13.60;61.30
50368;BME280;36281;34.132;-118.018;2023-01-30T00:19:33;99729.94;;;13.58;60.51
50368;BME280;36281;34.132;-118.018;2023-01-30T00:22:02;99732.00;;;13.56;60.31
50368;BME280;36281;34.132;-118.018;2023-01-30T00:24:32;99732.25;;;13.54;60.17
50368;BME280;36281;34.132;-118.018;2023-01-30T00:27:00;99728.78;;;13.54;60.60
50368;BME280;36281;34.132;-118.018;2023-01-30T00:29:28;99727.16;;;13.53;60.35
50368;BME280;36281;34.132;-118.018;2023-01-30T00:31:57;99729.72;;;13.48;60.60
50368;BME280;36281;34.132;-118.018;2023-01-30T00:34:25;99726.03;;;13.49;60.35
50368;BME280;36281;34.132;-118.018;2023-01-30T00:36:53;99722.56;;;13.48;60.27
50368;BME280;36281;34.132;-118.018;2023-01-30T00:39:35;99727.28;;;13.46;60.53
50368;BME280;36281;34.132;-118.018;2023-01-30T00:42:03;99722.19;;;13.44;61.24
50368;BME280;36281;34.132;-118.018;2023-01-30T00:44:50;99733.88;;;13.43;61.69
50368;BME280;36281;34.132;-118.018;2023-01-30T00:47:37;99728.56;;;13.43;62.04
50368;BME280;36281;34.132;-118.018;2023-01-30T00:50:05;99733.28;;;13.41;62.38
50368;BME280;36281;34.132;-118.018;2023-01-30T00:52:33;99731.94;;;13.39;62.82
50368;BME280;36281;34.132;-118.018;2023-01-30T00:55:04;99726.81;;;13.37;64.28
50368;BME280;36281;34.132;-118.018;2023-01-30T00:57:32;99732.63;;;13.34;64.95
50368;BME280;36281;34.132;-118.018;2023-01-30T01:00:00;99730.91;;;13.28;65.11
50368;BME280;36281;34.132;-118.018;2023-01-30T01:02:28;99740.13;;;13.26;64.67
50368;BME280;36281;34.132;-118.018;2023-01-30T01:04:57;99735.88;;;13.25;64.14
50368;BME280;36281;34.132;-118.018;2023-01-30T01:07:25;99737.72;;;13.24;63.59
50368;BME280;36281;34.132;-118.018;2023-01-30T01:09:53;99742.44;;;13.22;64.04
50368;BME280;36281;34.132;-118.018;2023-01-30T01:12:23;99742.66;;;13.20;63.37
50368;BME280;36281;34.132;-118.018;2023-01-30T01:14:51;99742.09;;;13.18;63.75
50368;BME280;36281;34.132;-118.018;2023-01-30T01:17:20;99747.63;;;13.17;63.45
50368;BME280;36281;34.132;-118.018;2023-01-30T01:19:48;99745.44;;;13.14;62.87
50368;BME280;36281;34.132;-118.018;2023-01-30T01:22:16;99747.50;;;13.12;63.45
50368;BME280;36281;34.132;-118.018;2023-01-30T01:24:44;99747.97;;;13.09;63.05
50368;BME280;36281;34.132;-118.018;2023-01-30T01:27:13;99748.19;;;13.07;62.85
50368;BME280;36281;34.132;-118.018;2023-01-30T01:29:42;99750.28;;;13.05;62.61
50368;BME280;36281;34.132;-118.018;2023-01-30T01:32:11;99753.38;;;13.02;62.40
50368;BME280;36281;34.132;-118.018;2023-01-30T01:34:39;99749.94;;;13.02;61.99
50368;BME280;36281;34.132;-118.018;2023-01-30T01:37:08;99748.56;;;12.99;62.51
50368;BME280;36281;34.132;-118.018;2023-01-30T01:39:36;99753.28;;;12.97;62.56
50368;BME280;36281;34.132;-118.018;2023-01-30T01:42:23;99760.09;;;12.93;63.12
50368;BME280;36281;34.132;-118.018;2023-01-30T01:45:01;99761.94;;;12.92;63.02
50368;BME280;36281;34.132;-118.018;2023-01-30T01:47:30;99762.97;;;12.91;62.56
50368;BME280;36281;34.132;-118.018;2023-01-30T01:50:00;99762.41;;;12.89;62.94
50368;BME280;36281;34.132;-118.018;2023-01-30T01:52:29;99767.13;;;12.87;62.87
50368;BME280;36281;34.132;-118.018;2023-01-30T01:54:58;99769.22;;;12.85;62.88
50368;BME280;36281;34.132;-118.018;2023-01-30T01:57:28;99773.72;;;12.85;62.79
50368;BME280;36281;34.132;-118.018;2023-01-30T01:59:59;99760.06;;;12.81;62.99
50368;BME280;36281;34.132;-118.018;2023-01-30T02:02:31;99759.50;;;12.79;63.30
50368;BME280;36281;34.132;-118.018;2023-01-30T02:05:00;99757.06;;;12.78;64.20
50368;BME280;36281;34.132;-118.018;2023-01-30T02:07:33;99760.75;;;12.77;64.28
50368;BME280;36281;34.132;-118.018;2023-01-30T02:10:04;99757.75;;;12.73;63.90
50368;BME280;36281;34.132;-118.018;2023-01-30T02:12:33;99770.69;;;12.70;64.94
50368;BME280;36281;34.132;-118.018;2023-01-30T02:15:02;99771.13;;;12.66;65.89
50368;BME280;36281;34.132;-118.018;2023-01-30T02:17:32;99767.78;;;12.59;66.08
50368;BME280;36281;34.132;-118.018;2023-01-30T02:20:02;99772.97;;;12.54;66.62
50368;BME280;36281;34.132;-118.018;2023-01-30T02:25:21;99776.53;;;12.48;66.83
50368;BME280;36281;34.132;-118.018;2023-01-30T02:28:02;99772.69;;;12.44;66.72
50368;BME280;36281;34.132;-118.018;2023-01-30T02:30:43;99776.03;;;12.39;67.31
50368;BME280;36281;34.132;-118.018;2023-01-30T02:33:20;99781.78;;;12.36;67.42
50368;BME280;36281;34.132;-118.018;2023-01-30T02:35:54;99784.91;;;12.33;68.13
50368;BME280;36281;34.132;-118.018;2023-01-30T02:38:29;99773.69;;;12.31;67.71
50368;BME280;36281;34.132;-118.018;2023-01-30T02:41:01;99783.78;;;12.23;68.34
50368;BME280;36281;34.132;-118.018;2023-01-30T02:43:38;99784.47;;;12.18;68.63
50368;BME280;36281;34.132;-118.018;2023-01-30T02:46:13;99782.50;;;12.13;68.68
50368;BME280;36281;34.132;-118.018;2023-01-30T02:48:43;99779.72;;;12.08;68.63
50368;BME280;36281;34.132;-118.018;2023-01-30T02:51:15;99771.38;;;12.05;69.22
50368;BME280;36281;34.132;-118.018;2023-01-30T02:53:44;99777.22;;;11.95;69.78
50368;BME280;36281;34.132;-118.018;2023-01-30T02:56:13;99776.84;;;11.92;69.67
50368;BME280;36281;34.132;-118.018;2023-01-30T02:58:45;99778.53;;;11.86;70.27
50368;BME280;36281;34.132;-118.018;2023-01-30T03:01:35;99786.56;;;11.79;70.55
50368;BME280;36281;34.132;-118.018;2023-01-30T03:04:19;99781.63;;;11.64;70.35
50368;BME280;36281;34.132;-118.018;2023-01-30T03:06:58;99782.69;;;11.57;71.02
50368;BME280;36281;34.132;-118.018;2023-01-30T03:09:30;99774.00;;;11.50;71.06
50368;BME280;36281;34.132;-118.018;2023-01-30T03:12:00;99785.28;;;11.45;71.54
50368;BME280;36281;34.132;-118.018;2023-01-30T03:14:31;99781.66;;;11.39;72.22
50368;BME280;36281;34.132;-118.018;2023-01-30T03:17:03;99782.09;;;11.36;72.77
50368;BME280;36281;34.132;-118.018;2023-01-30T03:19:33;99776.41;;;11.33;72.31
50368;BME280;36281;34.132;-118.018;2023-01-30T03:22:01;99779.72;;;11.28;72.20
50368;BME280;36281;34.132;-118.018;2023-01-30T03:24:30;99779.78;;;11.22;72.44
50368;BME280;36281;34.132;-118.018;2023-01-30T03:26:59;99784.69;;;11.18;73.05
50368;BME280;36281;34.132;-118.018;2023-01-30T03:29:28;99787.78;;;11.15;73.19
50368;BME280;36281;34.132;-118.018;2023-01-30T03:31:57;99788.84;;;11.14;73.33
50368;BME280;36281;34.132;-118.018;2023-01-30T03:34:27;99787.78;;;11.15;73.71
50368;BME280;36281;34.132;-118.018;2023-01-30T03:36:55;99785.16;;;11.15;74.74
50368;BME280;36281;34.132;-118.018;2023-01-30T03:39:23;99788.84;;;11.14;75.07
50368;BME280;36281;34.132;-118.018;2023-01-30T03:41:52;99786.19;;;11.14;74.99
50368;BME280;36281;34.132;-118.018;2023-01-30T03:44:21;99787.00;;;11.15;75.42
50368;BME280;36281;34.132;-118.018;2023-01-30T03:46:49;99783.72;;;11.12;75.56
50368;BME280;36281;34.132;-118.018;2023-01-30T03:49:17;99787.19;;;11.13;75.40
50368;BME280;36281;34.132;-118.018;2023-01-30T03:51:47;99788.22;;;11.12;75.91
50368;BME280;36281;34.132;-118.018;2023-01-30T03:54:15;99791.91;;;11.11;76.14
50368;BME280;36281;34.132;-118.018;2023-01-30T03:56:43;99788.66;;;11.09;75.95
50368;BME280;36281;34.132;-118.018;2023-01-30T03:59:12;99784.38;;;11.08;75.76
50368;BME280;36281;34.132;-118.018;2023-01-30T04:01:40;99783.78;;;11.06;76.01
50368;BME280;36281;34.132;-118.018;2023-01-30T04:04:08;99790.53;;;11.02;75.63
50368;BME280;36281;34.132;-118.018;2023-01-30T04:06:36;99796.06;;;11.00;75.74
50368;BME280;36281;34.132;-118.018;2023-01-30T04:09:06;99795.47;;;10.98;75.51
50368;BME280;36281;34.132;-118.018;2023-01-30T04:11:34;99793.63;;;10.99;75.78
50368;BME280;36281;34.132;-118.018;2023-01-30T04:14:03;99793.03;;;10.97;76.12
50368;BME280;36281;34.132;-118.018;2023-01-30T04:16:31;99799.94;;;10.98;76.24
50368;BME280;36281;34.132;-118.018;2023-01-30T04:18:59;99791.41;;;10.96;75.99
50368;BME280;36281;34.132;-118.018;2023-01-30T04:21:27;99803.63;;;10.97;75.54
50368;BME280;36281;34.132;-118.018;2023-01-30T04:23:56;99806.06;;;10.98;75.66
50368;BME280;36281;34.132;-118.018;2023-01-30T04:26:26;99810.13;;;11.01;75.87
50368;BME280;36281;34.132;-118.018;2023-01-30T04:28:54;99808.28;;;11.01;75.56
50368;BME280;36281;34.132;-118.018;2023-01-30T04:31:22;99813.38;;;11.03;75.20
50368;BME280;36281;34.132;-118.018;2023-01-30T04:33:51;99824.34;;;11.06;75.62
50368;BME280;36281;34.132;-118.018;2023-01-30T04:36:19;99815.97;;;11.09;75.88
50368;BME280;36281;34.132;-118.018;2023-01-30T04:38:48;99814.13;;;11.10;76.20
50368;BME280;36281;34.132;-118.018;2023-01-30T04:41:17;99820.25;;;11.10;77.49
50368;BME280;36281;34.132;-118.018;2023-01-30T04:43:47;99817.38;;;11.12;77.36
50368;BME280;36281;34.132;-118.018;2023-01-30T04:46:15;99815.34;;;11.14;78.31
50368;BME280;36281;34.132;-118.018;2023-01-30T04:48:43;99809.19;;;11.13;78.57
50368;BME280;36281;34.132;-118.018;2023-01-30T04:51:12;99808.38;;;11.13;79.39
50368;BME280;36281;34.132;-118.018;2023-01-30T04:53:40;99809.00;;;11.15;80.34
50368;BME280;36281;34.132;-118.018;2023-01-30T04:56:09;99813.28;;;11.16;80.87
50368;BME280;36281;34.132;-118.018;2023-01-30T04:58:37;99814.88;;;11.17;81.24
50368;BME280;36281;34.132;-118.018;2023-01-30T05:01:14;99814.88;;;11.17;81.67
50368;BME280;36281;34.132;-118.018;2023-01-30T05:03:42;99809.81;;;11.16;81.83
50368;BME280;36281;34.132;-118.018;2023-01-30T05:06:11;99813.69;;;11.13;81.93
50368;BME280;36281;34.132;-118.018;2023-01-30T05:08:39;99814.72;;;11.12;81.74
50368;BME280;36281;34.132;-118.018;2023-01-30T05:11:07;99823.94;;;11.09;82.21
50368;BME280;36281;34.132;-118.018;2023-01-30T05:13:36;99824.34;;;11.06;82.63
50368;BME280;36281;34.132;-118.018;2023-01-30T05:16:05;99817.84;;;11.02;82.69
50368;BME280;36281;34.132;-118.018;2023-01-30T05:18:35;99817.63;;;11.04;83.21
50368;BME280;36281;34.132;-118.018;2023-01-30T05:21:04;99826.63;;;11.03;83.12
50368;BME280;36281;34.132;-118.018;2023-01-30T05:23:34;99819.69;;;11.02;83.22
50368;BME280;36281;34.132;-118.018;2023-01-30T05:26:02;99818.09;;;11.01;83.52
50368;BME280;36281;34.132;-118.018;2023-01-30T05:28:31;99820.28;;;11.04;83.60
50368;BME280;36281;34.132;-118.018;2023-01-30T05:31:00;99822.13;;;11.03;83.91
50368;BME280;36281;34.132;-118.018;2023-01-30T05:33:29;99826.63;;;11.03;84.22
50368;BME280;36281;34.132;-118.018;2023-01-30T05:35:59;99824.41;;;11.00;84.60
50368;BME280;36281;34.132;-118.018;2023-01-30T05:38:27;99824.41;;;11.00;84.65
50368;BME280;36281;34.132;-118.018;2023-01-30T05:40:59;99824.44;;;10.93;84.33
50368;BME280;36281;34.132;-118.018;2023-01-30T05:43:27;99826.94;;;10.88;84.52
50368;BME280;36281;34.132;-118.018;2023-01-30T05:45:56;99827.16;;;10.86;84.03
50368;BME280;36281;34.132;-118.018;2023-01-30T05:48:25;99835.91;;;10.87;84.24
50368;BME280;36281;34.132;-118.018;2023-01-30T05:50:56;99827.38;;;10.85;84.09
50368;BME280;36281;34.132;-118.018;2023-01-30T05:53:27;99830.22;;;10.83;84.42
50368;BME280;36281;34.132;-118.018;2023-01-30T05:55:56;99824.09;;;10.83;84.62
50368;BME280;36281;34.132;-118.018;2023-01-30T05:58:24;99826.56;;;10.84;84.75
50368;BME280;36281;34.132;-118.018;2023-01-30T06:00:53;99822.72;;;10.80;85.11
50368;BME280;36281;34.132;-118.018;2023-01-30T06:03:21;99829.22;;;10.84;85.10
50368;BME280;36281;34.132;-118.018;2023-01-30T06:05:49;99831.03;;;10.84;85.20
50368;BME280;36281;34.132;-118.018;2023-01-30T06:08:18;99832.88;;;10.83;85.06
50368;BME280;36281;34.132;-118.018;2023-01-30T06:10:48;99838.78;;;10.85;85.47
50368;BME280;36281;34.132;-118.018;2023-01-30T06:13:16;99835.50;;;10.83;85.43
50368;BME280;36281;34.132;-118.018;2023-01-30T06:15:44;99837.75;;;10.86;85.39
50368;BME280;36281;34.132;-118.018;2023-01-30T06:18:13;99831.03;;;10.84;85.61
50368;BME280;36281;34.132;-118.018;2023-01-30T06:20:45;99837.16;;;10.84;85.57
50368;BME280;36281;34.132;-118.018;2023-01-30T06:23:14;99839.59;;;10.86;85.58
50368;BME280;36281;34.132;-118.018;2023-01-30T06:25:42;99835.31;;;10.85;85.43
50368;BME280;36281;34.132;-118.018;2023-01-30T06:28:13;99836.31;;;10.84;85.35
50368;BME280;36281;34.132;-118.018;2023-01-30T06:30:42;99831.03;;;10.84;85.28
50368;BME280;36281;34.132;-118.018;2023-01-30T06:33:10;99829.41;;;10.83;85.10
50368;BME280;36281;34.132;-118.018;2023-01-30T06:35:38;99827.56;;;10.83;85.06
50368;BME280;36281;34.132;-118.018;2023-01-30T06:38:07;99830.22;;;10.83;85.18
50368;BME280;36281;34.132;-118.018;2023-01-30T06:40:40;99830.22;;;10.83;84.78
50368;BME280;36281;34.132;-118.018;2023-01-30T06:43:08;99826.16;;;10.81;84.82
50368;BME280;36281;34.132;-118.018;2023-01-30T06:45:38;99836.53;;;10.82;84.72
50368;BME280;36281;34.132;-118.018;2023-01-30T06:48:06;99840.81;;;10.83;84.95
50368;BME280;36281;34.132;-118.018;2023-01-30T06:50:35;99836.75;;;10.81;85.01
50368;BME280;36281;34.132;-118.018;2023-01-30T06:53:04;99838.59;;;10.80;84.86
50368;BME280;36281;34.132;-118.018;2023-01-30T06:55:33;99848.16;;;10.81;83.98
50368;BME280;36281;34.132;-118.018;2023-01-30T06:58:02;99852.88;;;10.79;83.41
50368;BME280;36281;34.132;-118.018;2023-01-30T07:00:31;99851.84;;;10.80;82.99
50368;BME280;36281;34.132;-118.018;2023-01-30T07:03:01;99845.94;;;10.78;82.61
50368;BME280;36281;34.132;-118.018;2023-01-30T07:05:29;99851.22;;;10.78;82.20
50368;BME280;36281;34.132;-118.018;2023-01-30T07:07:57;99853.69;;;10.80;82.71
50368;BME280;36281;34.132;-118.018;2023-01-30T07:10:26;99854.50;;;10.80;82.91
50368;BME280;36281;34.132;-118.018;2023-01-30T07:12:55;99857.16;;;10.80;82.81
50368;BME280;36281;34.132;-118.018;2023-01-30T07:15:24;99860.84;;;10.79;82.48
50368;BME280;36281;34.132;-118.018;2023-01-30T07:17:52;99861.84;;;10.78;83.03
50368;BME280;36281;34.132;-118.018;2023-01-30T07:20:22;99861.25;;;10.76;82.94
50368;BME280;36281;34.132;-118.018;2023-01-30T07:22:51;99861.25;;;10.76;82.96
50368;BME280;36281;34.132;-118.018;2023-01-30T07:25:20;99872.88;;;10.75;83.50
50368;BME280;36281;34.132;-118.018;2023-01-30T07:27:49;99876.56;;;10.74;83.97
50368;BME280;36281;34.132;-118.018;2023-01-30T07:30:17;99867.75;;;10.74;84.54
50368;BME280;36281;34.132;-118.018;2023-01-30T07:32:48;99864.13;;;10.68;84.55
50368;BME280;36281;34.132;-118.018;2023-01-30T07:35:17;99863.53;;;10.66;84.52
50368;BME280;36281;34.132;-118.018;2023-01-30T07:37:47;99868.63;;;10.68;85.05
50368;BME280;36281;34.132;-118.018;2023-01-30T07:40:16;99866.78;;;10.68;85.72
50368;BME280;36281;34.132;-118.018;2023-01-30T07:42:54;99872.53;;;10.65;86.01
50368;BME280;36281;34.132;-118.018;2023-01-30T07:45:22;99865.78;;;10.63;86.38
50368;BME280;36281;34.132;-118.018;2023-01-30T07:47:52;99867.03;;;10.60;86.77
50368;BME280;36281;34.132;-118.018;2023-01-30T07:50:20;99866.25;;;10.59;86.74
50368;BME280;36281;34.132;-118.018;2023-01-30T07:52:51;99868.66;;;10.61;86.75
50368;BME280;36281;34.132;-118.018;2023-01-30T07:55:19;99872.94;;;10.62;86.90
50368;BME280;36281;34.132;-118.018;2023-01-30T07:57:47;99872.34;;;10.60;87.28
50368;BME280;36281;34.132;-118.018;2023-01-30T08:00:16;99875.81;;;10.60;87.69
50368;BME280;36281;34.132;-118.018;2023-01-30T08:02:45;99876.59;;;10.61;87.96
50368;BME280;36281;34.132;-118.018;2023-01-30T08:05:13;99871.13;;;10.56;87.90
50368;BME280;36281;34.132;-118.018;2023-01-30T08:07:41;99871.53;;;10.53;88.21
50368;BME280;36281;34.132;-118.018;2023-01-30T08:10:11;99872.75;;;10.57;88.61
50368;BME280;36281;34.132;-118.018;2023-01-30T08:12:40;99867.88;;;10.54;89.38
50368;BME280;36281;34.132;-118.018;2023-01-30T08:15:08;99866.25;;;10.53;89.61
50368;BME280;36281;34.132;-118.018;2023-01-30T08:17:37;99861.59;;;10.48;89.76
50368;BME280;36281;34.132;-118.018;2023-01-30T08:20:05;99862.63;;;10.47;89.92
50368;BME280;36281;34.132;-118.018;2023-01-30T08:22:34;99861.22;;;10.45;89.78
50368;BME280;36281;34.132;-118.018;2023-01-30T08:25:02;99859.78;;;10.42;89.69
50368;BME280;36281;34.132;-118.018;2023-01-30T08:27:32;99863.47;;;10.41;90.26
50368;BME280;36281;34.132;-118.018;2023-01-30T08:30:00;99862.66;;;10.41;90.16
50368;BME280;36281;34.132;-118.018;2023-01-30T08:32:28;99863.06;;;10.38;90.24
50368;BME280;36281;34.132;-118.018;2023-01-30T08:34:56;99869.97;;;10.39;90.25
50368;BME280;36281;34.132;-118.018;2023-01-30T08:37:25;99867.53;;;10.37;90.61
50368;BME280;36281;34.132;-118.018;2023-01-30T08:39:53;99860.63;;;10.36;90.73
50368;BME280;36281;34.132;-118.018;2023-01-30T08:42:21;99863.50;;;10.34;90.62
50368;BME280;36281;34.132;-118.018;2023-01-30T08:44:51;99861.03;;;10.33;90.68
50368;BME280;36281;34.132;-118.018;2023-01-30T08:47:19;99859.41;;;10.32;90.43
50368;BME280;36281;34.132;-118.018;2023-01-30T08:49:48;99865.75;;;10.31;90.58
50368;BME280;36281;34.132;-118.018;2023-01-30T08:52:18;99865.97;;;10.29;90.75
50368;BME280;36281;34.132;-118.018;2023-01-30T08:54:46;99858.44;;;10.26;90.95
50368;BME280;36281;34.132;-118.018;2023-01-30T08:57:15;99869.03;;;10.26;91.01
50368;BME280;36281;34.132;-118.018;2023-01-30T08:59:43;99864.94;;;10.24;90.96
50368;BME280;36281;34.132;-118.018;2023-01-30T09:02:14;99869.63;;;10.22;90.74
50368;BME280;36281;34.132;-118.018;2023-01-30T09:04:42;99869.03;;;10.20;90.95
50368;BME280;36281;34.132;-118.018;2023-01-30T09:07:10;99864.72;;;10.19;91.34
50368;BME280;36281;34.132;-118.018;2023-01-30T09:09:38;99869.84;;;10.20;91.27
50368;BME280;36281;34.132;-118.018;2023-01-30T09:12:07;99870.81;;;10.19;91.58
50368;BME280;36281;34.132;-118.018;2023-01-30T09:14:35;99879.22;;;10.16;nan
50368;BME280;36281;34.132;-118.018;2023-01-30T09:17:03;99881.03;;;10.16;91.53
50368;BME280;36281;34.132;-118.018;2023-01-30T09:19:33;99884.72;;;10.15;91.59
50368;BME280;36281;34.132;-118.018;2023-01-30T09:22:04;99888.16;;;10.15;91.28
50368;BME280;36281;34.132;-118.018;2023-01-30T09:24:33;99885.53;;;10.15;91.50
50368;BME280;36281;34.132;-118.018;2023-01-30T09:27:02;99883.88;;;10.14;91.62
50368;BME280;36281;34.132;-118.018;2023-01-30T09:29:30;99884.72;;;10.15;91.94
50368;BME280;36281;34.132;-118.018;2023-01-30T09:31:58;99888.78;;;10.10;91.53
50368;BME280;36281;34.132;-118.018;2023-01-30T09:34:26;99882.88;;;10.08;91.14
50368;BME280;36281;34.132;-118.018;2023-01-30T09:36:57;99892.06;;;10.06;91.01
50368;BME280;36281;34.132;-118.018;2023-01-30T09:39:28;99885.97;;;10.05;90.92
50368;BME280;36281;34.132;-118.018;2023-01-30T09:42:00;99885.34;;;10.03;90.76
50368;BME280;36281;34.132;-118.018;2023-01-30T09:47:21;99890.25;;;10.00;90.64
50368;BME280;36281;34.132;-118.018;2023-01-30T09:49:56;99890.66;;;9.97;90.63
50368;BME280;36281;34.132;-118.018;2023-01-30T09:52:32;99883.13;;;9.94;90.44
50368;BME280;36281;34.132;-118.018;2023-01-30T09:55:13;99879.88;;;9.92;90.38
50368;BME280;36281;34.132;-118.018;2023-01-30T09:57:43;99879.28;;;9.90;90.56
50368;BME280;36281;34.132;-118.018;2023-01-30T10:00:13;99885.38;;;9.90;90.90
50368;BME280;36281;34.132;-118.018;2023-01-30T10:02:48;99883.53;;;9.91;91.25
50368;BME280;36281;34.132;-118.018;2023-01-30T10:05:18;99880.28;;;9.89;91.56
50368;BME280;36281;34.132;-118.018;2023-01-30T10:10:46;99884.56;;;9.90;92.00
50368;BME280;36281;34.132;-118.018;2023-01-30T10:13:53;99878.44;;;9.89;91.97
50368;BME280;36281;34.132;-118.018;2023-01-30T10:16:23;99881.09;;;9.89;92.19
50368;BME280;36281;34.132;-118.018;2023-01-30T10:18:59;99882.91;;;9.89;92.12
50368;BME280;36281;34.132;-118.018;2023-01-30T10:21:31;99879.06;;;9.91;92.36
50368;BME280;36281;34.132;-118.018;2023-01-30T10:24:11;99876.00;;;9.88;92.45
50368;BME280;36281;34.132;-118.018;2023-01-30T10:26:44;99871.75;;;9.87;92.64
50368;BME280;36281;34.132;-118.018;2023-01-30T10:29:14;99872.56;;;9.87;92.59
50368;BME280;36281;34.132;-118.018;2023-01-30T10:31:45;99864.63;;;9.87;92.61
50368;BME280;36281;34.132;-118.018;2023-01-30T10:34:15;99866.06;;;9.90;92.43
50368;BME280;36281;34.132;-118.018;2023-01-30T10:36:47;99867.25;;;9.87;92.80
50368;BME280;36281;34.132;-118.018;2023-01-30T10:39:23;99870.50;;;9.89;92.96
50368;BME280;36281;34.132;-118.018;2023-01-30T10:41:55;99877.63;;;9.89;93.41
50368;BME280;36281;34.132;-118.018;2023-01-30T10:44:26;99878.25;;;9.91;93.48
50368;BME280;36281;34.132;-118.018;2023-01-30T10:47:07;99882.13;;;9.95;93.54
50368;BME280;36281;34.132;-118.018;2023-01-30T10:49:38;99884.34;;;9.98;93.67
50368;BME280;36281;34.132;-118.018;2023-01-30T10:52:15;99889.63;;;9.98;93.67
50368;BME280;36281;34.132;-118.018;2023-01-30T10:54:47;99893.28;;;9.97;93.81
50368;BME280;36281;34.132;-118.018;2023-01-30T10:57:22;99899.00;;;9.94;93.66
50368;BME280;36281;34.132;-118.018;2023-01-30T10:59:53;99906.34;;;9.92;93.75
50368;BME280;36281;34.132;-118.018;2023-01-30T11:02:23;99911.03;;;9.90;93.69
50368;BME280;36281;34.132;-118.018;2023-01-30T11:04:56;99909.19;;;9.83;92.96
50368;BME280;36281;34.132;-118.018;2023-01-30T11:07:26;99907.56;;;9.76;92.26
50368;BME280;36281;34.132;-118.018;2023-01-30T11:09:57;99910.84;;;9.71;91.83
50368;BME280;36281;34.132;-118.018;2023-01-30T11:12:27;99911.66;;;9.65;91.49
50368;BME280;36281;34.132;-118.018;2023-01-30T11:14:56;99911.25;;;9.62;91.04
50368;BME280;36281;34.132;-118.018;2023-01-30T11:17:28;99903.91;;;9.57;90.98
50368;BME280;36281;34.132;-118.018;2023-01-30T11:20:00;99909.22;;;9.57;91.00
50368;BME280;36281;34.132;-118.018;2023-01-30T11:22:29;99909.59;;;9.54;90.98
50368;BME280;36281;34.132;-118.018;2023-01-30T11:25:02;99916.94;;;9.52;nan
50368;BME280;36281;34.132;-118.018;2023-01-30T11:27:33;99921.63;;;9.50;92.16
50368;BME280;36281;34.132;-118.018;2023-01-30T11:30:03;99928.53;;;9.51;92.49
50368;BME280;36281;34.132;-118.018;2023-01-30T11:32:32;99924.66;;;9.47;92.50
50368;BME280;36281;34.132;-118.018;2023-01-30T11:35:02;99918.56;;;9.46;92.13
50368;BME280;36281;34.132;-118.018;2023-01-30T11:37:31;99924.88;;;9.45;92.41
50368;BME280;36281;34.132;-118.018;2023-01-30T11:40:00;99928.72;;;9.43;92.19
50368;BME280;36281;34.132;-118.018;2023-01-30T11:42:35;99920.78;;;9.43;92.12
50368;BME280;36281;34.132;-118.018;2023-01-30T11:45:11;99915.31;;;9.38;91.52
50368;BME280;36281;34.132;-118.018;2023-01-30T11:47:47;99922.41;;;9.44;91.33
50368;BME280;36281;34.132;-118.018;2023-01-30T11:50:25;99920.78;;;9.43;91.20
50368;BME280;36281;34.132;-118.018;2023-01-30T11:52:58;99912.28;;;9.41;91.19
50368;BME280;36281;34.132;-118.018;2023-01-30T11:55:29;99897.81;;;9.37;90.73
50368;BME280;36281;34.132;-118.018;2023-01-30T11:58:02;99886.41;;;9.29;90.38
50368;BME280;36281;34.132;-118.018;2023-01-30T12:00:36;99879.72;;;9.27;90.13
50368;BME280;36281;34.132;-118.018;2023-01-30T12:03:09;99893.97;;;9.26;90.79
50368;BME280;36281;34.132;-118.018;2023-01-30T12:05:38;99890.50;;;9.25;91.32
50368;BME280;36281;34.132;-118.018;2023-01-30T12:08:11;99892.94;;;9.27;91.66
50368;BME280;36281;34.132;-118.018;2023-01-30T12:10:41;99897.41;;;9.26;92.09
50368;BME280;36281;34.132;-118.018;2023-01-30T12:13:15;99899.03;;;9.27;92.33
50368;BME280;36281;34.132;-118.018;2023-01-30T12:15:45;99899.44;;;9.24;92.60
50368;BME280;36281;34.132;-118.018;2023-01-30T12:18:17;99902.50;;;9.21;92.70
50368;BME280;36281;34.132;-118.018;2023-01-30T12:20:51;99905.13;;;9.21;92.66
50368;BME280;36281;34.132;-118.018;2023-01-30T12:23:24;99904.72;;;9.18;92.30
50368;BME280;36281;34.132;-118.018;2023-01-30T12:25:58;99900.25;;;9.18;92.40
50368;BME280;36281;34.132;-118.018;2023-01-30T12:28:31;99892.31;;;9.18;92.35
50368;BME280;36281;34.132;-118.018;2023-01-30T12:31:03;99890.47;;;9.19;92.79
50368;BME280;36281;34.132;-118.018;2023-01-30T12:33:33;99888.66;;;9.19;92.98
50368;BME280;36281;34.132;-118.018;2023-01-30T12:36:06;99891.09;;;9.21;93.31
50368;BME280;36281;34.132;-118.018;2023-01-30T12:38:40;99888.66;;;9.19;93.50
50368;BME280;36281;34.132;-118.018;2023-01-30T12:41:17;99902.50;;;9.21;93.76
50368;BME280;36281;34.132;-118.018;2023-01-30T12:46:37;99886.00;;;9.19;93.99
50368;BME280;36281;34.132;-118.018;2023-01-30T12:49:15;99883.19;;;9.21;94.35
50368;BME280;36281;34.132;-118.018;2023-01-30T12:51:53;99872.63;;;9.21;94.34
50368;BME280;36281;34.132;-118.018;2023-01-30T12:54:30;99868.13;;;9.21;94.79
50368;BME280;36281;34.132;-118.018;2023-01-30T12:57:06;99872.78;;;9.19;94.90
50368;BME280;36281;34.132;-118.018;2023-01-30T12:59:37;99872.78;;;9.19;94.75
50368;BME280;36281;34.132;-118.018;2023-01-30T13:02:26;99887.03;;;9.18;94.51